sensor_id;sensor_type;location;lat;lon;timestamp;temperature;humidity
46676;DHT22;32412;51.478;5.694;2022-12-10T00:01:42;-1.50;99.90
46676;DHT22;32412;51.478;5.694;2022-12-10T00:04:08;-1.60;99.90
46676;DHT22;32412;51.478;5.694;2022-12-10T00:06:35;-1.60;99.90
46676;DHT22;32412;51.478;5.694;2022-12-10T00:09:03;-1.60;99.90
46676;DHT22;32412;51.478;5.694;2022-12-10T00:11:29;-1.50;99.90
46676;DHT22;32412;51.478;5.694;2022-12-10T00:13:55;-1.60;99.90
46676;DHT22;32412;51.478;5.694;2022-12-10T00:16:22;-1.60;99.90
46676;DHT22;32412;51.478;5.694;2022-12-10T00:18:49;-1.80;99.90
46676;DHT22;32412;51.478;5.694;2022-12-10T00:21:21;-1.90;99.90
46676;DHT22;32412;51.478;5.694;2022-12-10T00:23:48;-1.90;99.90
46676;DHT22;32412;51.478;5.694;2022-12-10T00:26:16;-1.90;99.90
46676;DHT22;32412;51.478;5.694;2022-12-10T00:28:43;-1.90;99.90
46676;DHT22;32412;51.478;5.694;2022-12-10T00:31:13;-2.00;99.90
46676;DHT22;32412;51.478;5.694;2022-12-10T00:33:41;-2.00;99.90
46676;DHT22;32412;51.478;5.694;2022-12-10T00:36:13;-2.00;99.90
46676;DHT22;32412;51.478;5.694;2022-12-10T00:38:40;-2.00;99.90
46676;DHT22;32412;51.478;5.694;2022-12-10T00:41:06;-2.10;99.90
46676;DHT22;32412;51.478;5.694;2022-12-10T00:43:32;-2.00;99.90
46676;DHT22;32412;51.478;5.694;2022-12-10T00:45:58;-2.00;99.90
46676;DHT22;32412;51.478;5.694;2022-12-10T00:48:24;-2.00;99.90
46676;DHT22;32412;51.478;5.694;2022-12-10T00:51:00;-2.00;99.90
46676;DHT22;32412;51.478;5.694;2022-12-10T00:53:26;-2.20;99.90
46676;DHT22;32412;51.478;5.694;2022-12-10T00:55:53;-2.20;99.90
46676;DHT22;32412;51.478;5.694;2022-12-10T00:58:19;-2.20;99.90
46676;DHT22;32412;51.478;5.694;2022-12-10T01:00:44;-2.20;99.90
46676;DHT22;32412;51.478;5.694;2022-12-10T01:03:10;-2.10;99.90
46676;DHT22;32412;51.478;5.694;2022-12-10T01:05:36;-2.20;99.90
46676;DHT22;32412;51.478;5.694;2022-12-10T01:08:01;-2.10;99.90
46676;DHT22;32412;51.478;5.694;2022-12-10T01:10:27;-2.20;99.90
46676;DHT22;32412;51.478;5.694;2022-12-10T01:12:52;-2.10;99.90
46676;DHT22;32412;51.478;5.694;2022-12-10T01:15:18;-2.20;99.90
46676;DHT22;32412;51.478;5.694;2022-12-10T01:17:44;-2.10;99.90
46676;DHT22;32412;51.478;5.694;2022-12-10T01:20:10;-2.20;99.90
46676;DHT22;32412;51.478;5.694;2022-12-10T01:22:35;-2.30;99.90
46676;DHT22;32412;51.478;5.694;2022-12-10T01:25:01;-2.30;99.90
46676;DHT22;32412;51.478;5.694;2022-12-10T01:27:27;-2.30;99.90
46676;DHT22;32412;51.478;5.694;2022-12-10T01:29:52;-2.40;99.90
46676;DHT22;32412;51.478;5.694;2022-12-10T01:32:18;-2.40;99.90
46676;DHT22;32412;51.478;5.694;2022-12-10T01:34:43;-2.30;99.90
46676;DHT22;32412;51.478;5.694;2022-12-10T01:37:09;-2.30;99.90
46676;DHT22;32412;51.478;5.694;2022-12-10T01:39:36;-2.30;99.90
46676;DHT22;32412;51.478;5.694;2022-12-10T01:42:02;-2.30;99.90
46676;DHT22;32412;51.478;5.694;2022-12-10T01:46:56;-2.30;99.90
46676;DHT22;32412;51.478;5.694;2022-12-10T01:49:36;-2.30;99.90
46676;DHT22;32412;51.478;5.694;2022-12-10T01:52:03;-2.30;99.90
46676;DHT22;32412;51.478;5.694;2022-12-10T01:54:40;-2.20;99.90
46676;DHT22;32412;51.478;5.694;2022-12-10T01:57:12;-2.30;99.90
46676;DHT22;32412;51.478;5.694;2022-12-10T01:59:39;-2.20;99.90
46676;DHT22;32412;51.478;5.694;2022-12-10T02:10:48;-2.10;99.90
46676;DHT22;32412;51.478;5.694;2022-12-10T02:18:35;-2.10;99.90
46676;DHT22;32412;51.478;5.694;2022-12-10T02:21:08;-2.10;99.90
46676;DHT22;32412;51.478;5.694;2022-12-10T02:23:39;-2.10;99.90
46676;DHT22;32412;51.478;5.694;2022-12-10T02:26:25;-2.10;99.90
46676;DHT22;32412;51.478;5.694;2022-12-10T02:29:12;-2.00;99.90
46676;DHT22;32412;51.478;5.694;2022-12-10T02:31:56;-1.90;99.90
46676;DHT22;32412;51.478;5.694;2022-12-10T02:34:27;-1.90;99.90
46676;DHT22;32412;51.478;5.694;2022-12-10T02:36:59;-1.80;99.90
46676;DHT22;32412;51.478;5.694;2022-12-10T02:39:30;-1.70;99.90
46676;DHT22;32412;51.478;5.694;2022-12-10T02:41:58;-1.60;99.90
46676;DHT22;32412;51.478;5.694;2022-12-10T02:44:27;-1.50;99.90
46676;DHT22;32412;51.478;5.694;2022-12-10T02:46:56;-1.40;99.90
46676;DHT22;32412;51.478;5.694;2022-12-10T02:49:24;-1.40;99.90
46676;DHT22;32412;51.478;5.694;2022-12-10T02:51:52;-1.40;99.90
46676;DHT22;32412;51.478;5.694;2022-12-10T02:54:43;-1.30;99.90
46676;DHT22;32412;51.478;5.694;2022-12-10T02:57:55;-1.20;99.90
46676;DHT22;32412;51.478;5.694;2022-12-10T03:00:18;-1.20;99.90
46676;DHT22;32412;51.478;5.694;2022-12-10T03:05:20;-1.30;99.90
46676;DHT22;32412;51.478;5.694;2022-12-10T03:12:49;-1.20;99.90
46676;DHT22;32412;51.478;5.694;2022-12-10T03:15:18;-1.20;99.90
46676;DHT22;32412;51.478;5.694;2022-12-10T03:17:46;-1.20;99.90
46676;DHT22;32412;51.478;5.694;2022-12-10T03:20:13;-1.20;99.90
46676;DHT22;32412;51.478;5.694;2022-12-10T03:22:42;-1.10;99.90
46676;DHT22;32412;51.478;5.694;2022-12-10T03:25:10;-1.10;99.90
46676;DHT22;32412;51.478;5.694;2022-12-10T03:27:39;-1.10;99.90
46676;DHT22;32412;51.478;5.694;2022-12-10T03:30:07;-1.10;99.90
46676;DHT22;32412;51.478;5.694;2022-12-10T03:32:33;-1.10;99.90
46676;DHT22;32412;51.478;5.694;2022-12-10T03:35:00;-1.00;99.90
46676;DHT22;32412;51.478;5.694;2022-12-10T03:37:27;-1.10;99.90
46676;DHT22;32412;51.478;5.694;2022-12-10T03:39:55;-1.00;99.90
46676;DHT22;32412;51.478;5.694;2022-12-10T03:42:21;-1.00;99.90
46676;DHT22;32412;51.478;5.694;2022-12-10T03:44:50;-1.00;99.90
46676;DHT22;32412;51.478;5.694;2022-12-10T03:47:16;-1.00;99.90
46676;DHT22;32412;51.478;5.694;2022-12-10T03:49:42;-1.00;99.90
46676;DHT22;32412;51.478;5.694;2022-12-10T03:52:08;-1.00;99.90
46676;DHT22;32412;51.478;5.694;2022-12-10T03:54:34;-1.00;99.90
46676;DHT22;32412;51.478;5.694;2022-12-10T03:57:00;-0.90;99.90
46676;DHT22;32412;51.478;5.694;2022-12-10T03:59:25;-0.90;99.90
46676;DHT22;32412;51.478;5.694;2022-12-10T04:01:51;-0.90;99.90
46676;DHT22;32412;51.478;5.694;2022-12-10T04:04:17;-0.90;99.90
46676;DHT22;32412;51.478;5.694;2022-12-10T04:06:43;-0.80;99.90
46676;DHT22;32412;51.478;5.694;2022-12-10T04:09:13;-0.80;99.90
46676;DHT22;32412;51.478;5.694;2022-12-10T04:11:39;-0.80;99.90
46676;DHT22;32412;51.478;5.694;2022-12-10T04:14:05;-0.80;99.90
46676;DHT22;32412;51.478;5.694;2022-12-10T04:16:49;-0.80;99.90
46676;DHT22;32412;51.478;5.694;2022-12-10T04:19:16;-0.80;99.90
46676;DHT22;32412;51.478;5.694;2022-12-10T04:21:43;-0.90;99.90
46676;DHT22;32412;51.478;5.694;2022-12-10T04:24:30;-0.80;99.90
46676;DHT22;32412;51.478;5.694;2022-12-10T04:29:49;-0.80;99.90
46676;DHT22;32412;51.478;5.694;2022-12-10T04:32:15;-0.80;99.90
46676;DHT22;32412;51.478;5.694;2022-12-10T04:34:41;-0.70;99.90
46676;DHT22;32412;51.478;5.694;2022-12-10T04:37:07;-0.70;99.90
46676;DHT22;32412;51.478;5.694;2022-12-10T04:39:32;-0.70;99.90
46676;DHT22;32412;51.478;5.694;2022-12-10T04:42:00;-0.70;99.90
46676;DHT22;32412;51.478;5.694;2022-12-10T04:44:25;-0.70;99.90
46676;DHT22;32412;51.478;5.694;2022-12-10T04:46:51;-0.70;99.90
46676;DHT22;32412;51.478;5.694;2022-12-10T04:49:17;-0.60;99.90
46676;DHT22;32412;51.478;5.694;2022-12-10T04:51:43;-0.60;99.90
46676;DHT22;32412;51.478;5.694;2022-12-10T04:54:09;-0.70;99.90
46676;DHT22;32412;51.478;5.694;2022-12-10T04:56:36;-0.70;99.90
46676;DHT22;32412;51.478;5.694;2022-12-10T04:59:03;-0.70;99.90
46676;DHT22;32412;51.478;5.694;2022-12-10T05:01:29;-0.70;99.90
46676;DHT22;32412;51.478;5.694;2022-12-10T05:03:57;-0.70;99.90
46676;DHT22;32412;51.478;5.694;2022-12-10T05:06:23;-0.70;99.90
46676;DHT22;32412;51.478;5.694;2022-12-10T05:08:48;-0.70;99.90
46676;DHT22;32412;51.478;5.694;2022-12-10T05:11:16;-0.60;99.90
46676;DHT22;32412;51.478;5.694;2022-12-10T05:13:42;-0.60;99.90
46676;DHT22;32412;51.478;5.694;2022-12-10T05:16:11;-0.70;99.90
46676;DHT22;32412;51.478;5.694;2022-12-10T05:18:37;-0.70;99.90
46676;DHT22;32412;51.478;5.694;2022-12-10T05:21:05;-0.70;99.90
46676;DHT22;32412;51.478;5.694;2022-12-10T05:23:33;-0.70;99.90
46676;DHT22;32412;51.478;5.694;2022-12-10T05:26:15;-0.70;99.90
46676;DHT22;32412;51.478;5.694;2022-12-10T05:29:01;-0.70;99.90
46676;DHT22;32412;51.478;5.694;2022-12-10T05:31:28;-0.70;99.90
46676;DHT22;32412;51.478;5.694;2022-12-10T05:33:56;-0.80;99.90
46676;DHT22;32412;51.478;5.694;2022-12-10T05:36:28;-0.80;99.90
46676;DHT22;32412;51.478;5.694;2022-12-10T05:38:55;-0.80;99.90
46676;DHT22;32412;51.478;5.694;2022-12-10T05:41:27;-0.70;99.90
46676;DHT22;32412;51.478;5.694;2022-12-10T05:43:54;-0.80;99.90
46676;DHT22;32412;51.478;5.694;2022-12-10T05:46:26;-0.80;99.90
46676;DHT22;32412;51.478;5.694;2022-12-10T05:48:52;-0.80;99.90
46676;DHT22;32412;51.478;5.694;2022-12-10T05:51:21;-0.80;99.90
46676;DHT22;32412;51.478;5.694;2022-12-10T05:53:47;-0.80;99.90
46676;DHT22;32412;51.478;5.694;2022-12-10T05:56:15;-0.80;99.90
46676;DHT22;32412;51.478;5.694;2022-12-10T05:58:42;-0.80;99.90
46676;DHT22;32412;51.478;5.694;2022-12-10T06:01:14;-0.90;99.90
46676;DHT22;32412;51.478;5.694;2022-12-10T06:03:41;-0.90;99.90
46676;DHT22;32412;51.478;5.694;2022-12-10T06:06:06;-0.90;99.90
46676;DHT22;32412;51.478;5.694;2022-12-10T06:08:32;-0.90;99.90
46676;DHT22;32412;51.478;5.694;2022-12-10T06:11:03;-0.90;99.90
46676;DHT22;32412;51.478;5.694;2022-12-10T06:13:28;-0.90;99.90
46676;DHT22;32412;51.478;5.694;2022-12-10T06:15:55;-0.80;99.90
46676;DHT22;32412;51.478;5.694;2022-12-10T06:18:21;-0.80;99.90
46676;DHT22;32412;51.478;5.694;2022-12-10T06:20:47;-0.70;99.90
46676;DHT22;32412;51.478;5.694;2022-12-10T06:23:13;-0.80;99.90
46676;DHT22;32412;51.478;5.694;2022-12-10T06:25:39;-0.80;99.90
46676;DHT22;32412;51.478;5.694;2022-12-10T06:28:05;-0.70;99.90
46676;DHT22;32412;51.478;5.694;2022-12-10T06:30:32;-0.70;99.90
46676;DHT22;32412;51.478;5.694;2022-12-10T06:32:57;-0.80;99.90
46676;DHT22;32412;51.478;5.694;2022-12-10T06:35:23;-0.80;99.90
46676;DHT22;32412;51.478;5.694;2022-12-10T06:37:50;-0.80;99.90
46676;DHT22;32412;51.478;5.694;2022-12-10T06:40:16;-0.80;99.90
46676;DHT22;32412;51.478;5.694;2022-12-10T06:42:42;-0.70;99.90
46676;DHT22;32412;51.478;5.694;2022-12-10T06:45:08;-0.70;99.90
46676;DHT22;32412;51.478;5.694;2022-12-10T06:47:34;-0.70;99.90
46676;DHT22;32412;51.478;5.694;2022-12-10T06:49:59;-0.70;99.90
46676;DHT22;32412;51.478;5.694;2022-12-10T06:52:25;-0.70;99.90
46676;DHT22;32412;51.478;5.694;2022-12-10T06:54:51;-0.70;99.90
46676;DHT22;32412;51.478;5.694;2022-12-10T06:57:16;-0.80;99.90
46676;DHT22;32412;51.478;5.694;2022-12-10T06:59:42;-0.80;99.90
46676;DHT22;32412;51.478;5.694;2022-12-10T07:02:09;-0.80;99.90
46676;DHT22;32412;51.478;5.694;2022-12-10T07:04:35;-0.80;99.90
46676;DHT22;32412;51.478;5.694;2022-12-10T07:07:00;-0.80;99.90
46676;DHT22;32412;51.478;5.694;2022-12-10T07:09:26;-0.80;99.90
46676;DHT22;32412;51.478;5.694;2022-12-10T07:11:52;-0.80;99.90
46676;DHT22;32412;51.478;5.694;2022-12-10T07:14:18;-0.90;99.90
46676;DHT22;32412;51.478;5.694;2022-12-10T07:16:43;-0.90;99.90
46676;DHT22;32412;51.478;5.694;2022-12-10T07:19:11;-0.90;99.90
46676;DHT22;32412;51.478;5.694;2022-12-10T07:21:39;-0.90;99.90
46676;DHT22;32412;51.478;5.694;2022-12-10T07:24:13;-0.90;99.90
46676;DHT22;32412;51.478;5.694;2022-12-10T07:26:41;-0.90;99.90
46676;DHT22;32412;51.478;5.694;2022-12-10T07:29:16;-0.90;99.90
46676;DHT22;32412;51.478;5.694;2022-12-10T07:31:42;-0.90;99.90
46676;DHT22;32412;51.478;5.694;2022-12-10T07:34:09;-0.90;99.90
46676;DHT22;32412;51.478;5.694;2022-12-10T07:36:35;-1.00;99.90
46676;DHT22;32412;51.478;5.694;2022-12-10T07:39:00;-1.00;99.90
46676;DHT22;32412;51.478;5.694;2022-12-10T07:41:26;-0.90;99.90
46676;DHT22;32412;51.478;5.694;2022-12-10T07:43:52;-1.00;99.90
46676;DHT22;32412;51.478;5.694;2022-12-10T07:46:20;-1.00;99.90
46676;DHT22;32412;51.478;5.694;2022-12-10T07:48:47;-1.00;99.90
46676;DHT22;32412;51.478;5.694;2022-12-10T07:51:14;-0.90;99.90
46676;DHT22;32412;51.478;5.694;2022-12-10T07:53:39;-1.00;99.90
46676;DHT22;32412;51.478;5.694;2022-12-10T07:56:06;-1.00;99.90
46676;DHT22;32412;51.478;5.694;2022-12-10T07:58:32;-0.90;99.90
46676;DHT22;32412;51.478;5.694;2022-12-10T08:00:58;-0.90;99.90
46676;DHT22;32412;51.478;5.694;2022-12-10T08:03:24;-0.90;99.90
46676;DHT22;32412;51.478;5.694;2022-12-10T08:06:00;-0.90;99.90
46676;DHT22;32412;51.478;5.694;2022-12-10T08:08:26;-0.80;99.90
46676;DHT22;32412;51.478;5.694;2022-12-10T08:10:52;-0.80;99.90
46676;DHT22;32412;51.478;5.694;2022-12-10T08:13:17;-0.80;99.90
46676;DHT22;32412;51.478;5.694;2022-12-10T08:15:43;-0.80;99.90
46676;DHT22;32412;51.478;5.694;2022-12-10T08:18:08;-0.80;99.90
46676;DHT22;32412;51.478;5.694;2022-12-10T08:20:35;-0.90;99.90
46676;DHT22;32412;51.478;5.694;2022-12-10T08:23:00;-0.80;99.90
46676;DHT22;32412;51.478;5.694;2022-12-10T08:25:26;-0.90;99.90
46676;DHT22;32412;51.478;5.694;2022-12-10T08:27:52;-0.90;99.90
46676;DHT22;32412;51.478;5.694;2022-12-10T08:30:18;-0.90;99.90
46676;DHT22;32412;51.478;5.694;2022-12-10T08:32:43;-0.90;99.90
46676;DHT22;32412;51.478;5.694;2022-12-10T08:35:09;-0.90;99.90
46676;DHT22;32412;51.478;5.694;2022-12-10T08:37:34;-0.90;99.90
46676;DHT22;32412;51.478;5.694;2022-12-10T08:40:00;-1.00;99.90
46676;DHT22;32412;51.478;5.694;2022-12-10T08:42:26;-0.90;99.90
46676;DHT22;32412;51.478;5.694;2022-12-10T08:44:51;-0.90;99.90
46676;DHT22;32412;51.478;5.694;2022-12-10T08:47:17;-0.80;99.90
46676;DHT22;32412;51.478;5.694;2022-12-10T08:49:42;-0.80;99.90
46676;DHT22;32412;51.478;5.694;2022-12-10T08:52:08;-0.70;99.90
46676;DHT22;32412;51.478;5.694;2022-12-10T08:54:34;-0.70;99.90
46676;DHT22;32412;51.478;5.694;2022-12-10T08:56:59;-0.60;99.90
46676;DHT22;32412;51.478;5.694;2022-12-10T08:59:25;-0.60;99.90
46676;DHT22;32412;51.478;5.694;2022-12-10T09:01:54;-0.60;99.90
46676;DHT22;32412;51.478;5.694;2022-12-10T09:04:19;-0.60;99.90
46676;DHT22;32412;51.478;5.694;2022-12-10T09:06:45;-0.60;99.90
46676;DHT22;32412;51.478;5.694;2022-12-10T09:09:11;-0.50;99.90
46676;DHT22;32412;51.478;5.694;2022-12-10T09:11:37;-0.50;99.90
46676;DHT22;32412;51.478;5.694;2022-12-10T09:14:03;-0.50;99.90
46676;DHT22;32412;51.478;5.694;2022-12-10T09:16:34;-0.50;99.90
46676;DHT22;32412;51.478;5.694;2022-12-10T09:19:00;-0.40;99.90
46676;DHT22;32412;51.478;5.694;2022-12-10T09:21:26;-0.50;99.90
46676;DHT22;32412;51.478;5.694;2022-12-10T09:23:52;-0.40;99.90
46676;DHT22;32412;51.478;5.694;2022-12-10T09:26:18;-0.40;99.90
46676;DHT22;32412;51.478;5.694;2022-12-10T09:28:45;-0.40;99.90
46676;DHT22;32412;51.478;5.694;2022-12-10T09:31:12;-0.40;99.90
46676;DHT22;32412;51.478;5.694;2022-12-10T09:33:38;-0.40;99.90
46676;DHT22;32412;51.478;5.694;2022-12-10T09:36:06;-0.40;99.90
46676;DHT22;32412;51.478;5.694;2022-12-10T09:38:34;-0.40;99.90
46676;DHT22;32412;51.478;5.694;2022-12-10T09:41:02;-0.50;99.90
46676;DHT22;32412;51.478;5.694;2022-12-10T09:44:18;-0.50;99.90
46676;DHT22;32412;51.478;5.694;2022-12-10T09:46:55;-0.50;99.90
46676;DHT22;32412;51.478;5.694;2022-12-10T09:52:12;-0.60;99.90
46676;DHT22;32412;51.478;5.694;2022-12-10T09:54:55;-0.40;99.90
46676;DHT22;32412;51.478;5.694;2022-12-10T09:57:31;-0.40;99.90
46676;DHT22;32412;51.478;5.694;2022-12-10T10:00:05;-0.30;99.90
46676;DHT22;32412;51.478;5.694;2022-12-10T10:02:32;-0.30;99.90
46676;DHT22;32412;51.478;5.694;2022-12-10T10:07:38;-0.30;99.90
46676;DHT22;32412;51.478;5.694;2022-12-10T10:10:07;-0.20;99.90
46676;DHT22;32412;51.478;5.694;2022-12-10T10:12:38;-0.30;99.90
46676;DHT22;32412;51.478;5.694;2022-12-10T10:15:14;-0.30;99.90
46676;DHT22;32412;51.478;5.694;2022-12-10T10:17:41;-0.30;99.90
46676;DHT22;32412;51.478;5.694;2022-12-10T10:20:11;-0.30;99.90
46676;DHT22;32412;51.478;5.694;2022-12-10T10:22:38;-0.20;99.90
46676;DHT22;32412;51.478;5.694;2022-12-10T10:25:05;-0.20;99.90
46676;DHT22;32412;51.478;5.694;2022-12-10T10:27:32;-0.30;99.90
46676;DHT22;32412;51.478;5.694;2022-12-10T10:30:02;-0.30;99.90
46676;DHT22;32412;51.478;5.694;2022-12-10T10:35:03;-0.20;99.90
46676;DHT22;32412;51.478;5.694;2022-12-10T10:37:40;-0.20;99.90
46676;DHT22;32412;51.478;5.694;2022-12-10T10:40:20;-0.20;99.90
46676;DHT22;32412;51.478;5.694;2022-12-10T10:42:46;-0.20;99.90
46676;DHT22;32412;51.478;5.694;2022-12-10T10:45:36;-0.20;99.90
46676;DHT22;32412;51.478;5.694;2022-12-10T10:48:17;-0.20;99.90
46676;DHT22;32412;51.478;5.694;2022-12-10T10:50:47;-0.20;99.90
46676;DHT22;32412;51.478;5.694;2022-12-10T10:53:28;-0.20;99.90
46676;DHT22;32412;51.478;5.694;2022-12-10T10:55:58;-0.20;99.90
46676;DHT22;32412;51.478;5.694;2022-12-10T10:58:25;-0.20;99.90
46676;DHT22;32412;51.478;5.694;2022-12-10T11:01:00;-0.30;99.90
46676;DHT22;32412;51.478;5.694;2022-12-10T11:03:28;-0.20;99.90
46676;DHT22;32412;51.478;5.694;2022-12-10T11:05:56;-0.20;99.90
46676;DHT22;32412;51.478;5.694;2022-12-10T11:08:25;-0.10;99.90
46676;DHT22;32412;51.478;5.694;2022-12-10T11:10:54;-0.10;99.90
46676;DHT22;32412;51.478;5.694;2022-12-10T11:13:27;-0.10;99.90
46676;DHT22;32412;51.478;5.694;2022-12-10T11:16:16;-0.10;99.90
46676;DHT22;32412;51.478;5.694;2022-12-10T11:18:57;-0.20;99.90
46676;DHT22;32412;51.478;5.694;2022-12-10T11:21:28;0.00;99.90
46676;DHT22;32412;51.478;5.694;2022-12-10T11:23:55;0.10;99.90
46676;DHT22;32412;51.478;5.694;2022-12-10T11:32:14;0.10;99.90
46676;DHT22;32412;51.478;5.694;2022-12-10T11:42:41;0.00;99.90
46676;DHT22;32412;51.478;5.694;2022-12-10T11:45:19;0.20;99.90
46676;DHT22;32412;51.478;5.694;2022-12-10T11:48:22;0.20;99.90
46676;DHT22;32412;51.478;5.694;2022-12-10T11:55:52;0.20;99.90
46676;DHT22;32412;51.478;5.694;2022-12-10T12:01:21;0.20;99.90
46676;DHT22;32412;51.478;5.694;2022-12-10T12:06:53;0.30;99.90
46676;DHT22;32412;51.478;5.694;2022-12-10T12:15:16;0.20;99.90
46676;DHT22;32412;51.478;5.694;2022-12-10T12:17:48;0.10;99.90
46676;DHT22;32412;51.478;5.694;2022-12-10T12:20:32;0.30;99.90
46676;DHT22;32412;51.478;5.694;2022-12-10T12:24:04;0.40;99.90
46676;DHT22;32412;51.478;5.694;2022-12-10T12:31:59;0.50;99.90
46676;DHT22;32412;51.478;5.694;2022-12-10T12:37:12;0.40;99.90
46676;DHT22;32412;51.478;5.694;2022-12-10T12:39:46;0.40;99.90
46676;DHT22;32412;51.478;5.694;2022-12-10T12:42:31;0.40;99.90
46676;DHT22;32412;51.478;5.694;2022-12-10T12:45:20;0.30;99.90
46676;DHT22;32412;51.478;5.694;2022-12-10T12:48:06;0.40;99.90
46676;DHT22;32412;51.478;5.694;2022-12-10T12:50:54;0.50;99.90
46676;DHT22;32412;51.478;5.694;2022-12-10T12:53:23;0.50;99.90
46676;DHT22;32412;51.478;5.694;2022-12-10T12:56:02;0.50;99.90
46676;DHT22;32412;51.478;5.694;2022-12-10T12:58:40;0.50;99.90
46676;DHT22;32412;51.478;5.694;2022-12-10T13:01:25;0.50;99.90
46676;DHT22;32412;51.478;5.694;2022-12-10T13:03:54;0.60;99.90
46676;DHT22;32412;51.478;5.694;2022-12-10T13:06:29;0.50;99.90
46676;DHT22;32412;51.478;5.694;2022-12-10T13:42:44;0.40;99.90
46676;DHT22;32412;51.478;5.694;2022-12-10T13:45:31;0.30;99.90
46676;DHT22;32412;51.478;5.694;2022-12-10T13:48:28;0.40;99.90
46676;DHT22;32412;51.478;5.694;2022-12-10T13:51:12;0.30;99.90
46676;DHT22;32412;51.478;5.694;2022-12-10T13:56:45;0.30;99.90
46676;DHT22;32412;51.478;5.694;2022-12-10T13:59:16;0.30;99.90
46676;DHT22;32412;51.478;5.694;2022-12-10T14:07:25;0.30;99.90
46676;DHT22;32412;51.478;5.694;2022-12-10T14:09:54;0.30;99.90
46676;DHT22;32412;51.478;5.694;2022-12-10T14:12:46;0.20;99.90
46676;DHT22;32412;51.478;5.694;2022-12-10T14:15:21;0.20;99.90
46676;DHT22;32412;51.478;5.694;2022-12-10T14:17:50;0.20;99.90
46676;DHT22;32412;51.478;5.694;2022-12-10T14:20:22;0.10;99.90
46676;DHT22;32412;51.478;5.694;2022-12-10T14:22:53;0.20;99.90
46676;DHT22;32412;51.478;5.694;2022-12-10T14:25:45;0.20;99.90
46676;DHT22;32412;51.478;5.694;2022-12-10T14:28:14;0.30;99.90
46676;DHT22;32412;51.478;5.694;2022-12-10T14:30:48;0.20;99.90
46676;DHT22;32412;51.478;5.694;2022-12-10T14:33:20;0.20;99.90
46676;DHT22;32412;51.478;5.694;2022-12-10T14:35:48;0.20;99.90
46676;DHT22;32412;51.478;5.694;2022-12-10T14:38:34;0.20;99.90
46676;DHT22;32412;51.478;5.694;2022-12-10T14:41:01;0.20;99.90
46676;DHT22;32412;51.478;5.694;2022-12-10T14:43:38;0.20;99.90
46676;DHT22;32412;51.478;5.694;2022-12-10T14:46:10;0.20;99.90
46676;DHT22;32412;51.478;5.694;2022-12-10T14:48:41;0.10;99.90
46676;DHT22;32412;51.478;5.694;2022-12-10T14:51:17;0.20;99.90
46676;DHT22;32412;51.478;5.694;2022-12-10T14:53:45;0.20;99.90
46676;DHT22;32412;51.478;5.694;2022-12-10T14:56:25;0.20;99.90
46676;DHT22;32412;51.478;5.694;2022-12-10T14:58:56;0.20;99.90
46676;DHT22;32412;51.478;5.694;2022-12-10T15:01:31;0.10;99.90
46676;DHT22;32412;51.478;5.694;2022-12-10T15:04:00;0.20;99.90
46676;DHT22;32412;51.478;5.694;2022-12-10T15:06:26;0.10;99.90
46676;DHT22;32412;51.478;5.694;2022-12-10T15:08:55;0.10;99.90
46676;DHT22;32412;51.478;5.694;2022-12-10T15:11:24;0.10;99.90
46676;DHT22;32412;51.478;5.694;2022-12-10T15:13:53;0.00;99.90
46676;DHT22;32412;51.478;5.694;2022-12-10T15:16:29;0.10;99.90
46676;DHT22;32412;51.478;5.694;2022-12-10T15:18:55;0.10;99.90
46676;DHT22;32412;51.478;5.694;2022-12-10T15:21:23;0.10;99.90
46676;DHT22;32412;51.478;5.694;2022-12-10T15:23:50;0.10;99.90
46676;DHT22;32412;51.478;5.694;2022-12-10T15:26:33;0.20;99.90
46676;DHT22;32412;51.478;5.694;2022-12-10T15:32:03;0.10;99.90
46676;DHT22;32412;51.478;5.694;2022-12-10T15:34:38;0.20;99.90
46676;DHT22;32412;51.478;5.694;2022-12-10T15:37:05;0.20;99.90
46676;DHT22;32412;51.478;5.694;2022-12-10T15:39:37;0.20;99.90
46676;DHT22;32412;51.478;5.694;2022-12-10T15:42:08;0.20;99.90
46676;DHT22;32412;51.478;5.694;2022-12-10T15:44:56;0.20;99.90
46676;DHT22;32412;51.478;5.694;2022-12-10T15:47:25;0.20;99.90
46676;DHT22;32412;51.478;5.694;2022-12-10T15:49:53;0.20;99.90
46676;DHT22;32412;51.478;5.694;2022-12-10T15:52:28;0.20;99.90
46676;DHT22;32412;51.478;5.694;2022-12-10T15:54:55;0.20;99.90
46676;DHT22;32412;51.478;5.694;2022-12-10T15:57:26;0.30;99.90
46676;DHT22;32412;51.478;5.694;2022-12-10T15:59:54;0.20;99.90
46676;DHT22;32412;51.478;5.694;2022-12-10T16:04:52;0.10;99.90
46676;DHT22;32412;51.478;5.694;2022-12-10T16:07:19;0.10;99.90
46676;DHT22;32412;51.478;5.694;2022-12-10T16:09:45;0.10;99.90
46676;DHT22;32412;51.478;5.694;2022-12-10T16:12:13;0.10;99.90
46676;DHT22;32412;51.478;5.694;2022-12-10T16:14:47;0.10;99.90
46676;DHT22;32412;51.478;5.694;2022-12-10T16:17:14;0.10;99.90
46676;DHT22;32412;51.478;5.694;2022-12-10T16:19:40;0.10;99.90
46676;DHT22;32412;51.478;5.694;2022-12-10T16:22:06;0.10;99.90
46676;DHT22;32412;51.478;5.694;2022-12-10T16:24:31;0.10;99.90
46676;DHT22;32412;51.478;5.694;2022-12-10T16:26:57;0.20;99.90
46676;DHT22;32412;51.478;5.694;2022-12-10T16:29:23;0.10;99.90
46676;DHT22;32412;51.478;5.694;2022-12-10T16:31:49;0.20;99.90
46676;DHT22;32412;51.478;5.694;2022-12-10T16:34:15;0.20;99.90
46676;DHT22;32412;51.478;5.694;2022-12-10T16:36:41;0.20;99.90
46676;DHT22;32412;51.478;5.694;2022-12-10T16:39:06;0.20;99.90
46676;DHT22;32412;51.478;5.694;2022-12-10T16:41:32;0.20;99.90
46676;DHT22;32412;51.478;5.694;2022-12-10T16:43:58;0.20;99.90
46676;DHT22;32412;51.478;5.694;2022-12-10T16:46:24;0.10;99.90
46676;DHT22;32412;51.478;5.694;2022-12-10T16:48:50;0.10;99.90
46676;DHT22;32412;51.478;5.694;2022-12-10T16:51:24;0.10;99.90
46676;DHT22;32412;51.478;5.694;2022-12-10T16:53:54;0.20;99.90
46676;DHT22;32412;51.478;5.694;2022-12-10T16:56:20;0.20;99.90
46676;DHT22;32412;51.478;5.694;2022-12-10T16:58:45;0.20;99.90
46676;DHT22;32412;51.478;5.694;2022-12-10T17:01:23;0.30;99.90
46676;DHT22;32412;51.478;5.694;2022-12-10T17:03:50;0.30;99.90
46676;DHT22;32412;51.478;5.694;2022-12-10T17:06:17;0.30;99.90
46676;DHT22;32412;51.478;5.694;2022-12-10T17:08:42;0.30;99.90
46676;DHT22;32412;51.478;5.694;2022-12-10T17:11:17;0.20;99.90
46676;DHT22;32412;51.478;5.694;2022-12-10T17:14:02;0.30;99.90
46676;DHT22;32412;51.478;5.694;2022-12-10T17:16:30;0.30;99.90
46676;DHT22;32412;51.478;5.694;2022-12-10T17:18:56;0.30;99.90
46676;DHT22;32412;51.478;5.694;2022-12-10T17:21:22;0.30;99.90
46676;DHT22;32412;51.478;5.694;2022-12-10T17:23:49;0.30;99.90
46676;DHT22;32412;51.478;5.694;2022-12-10T17:26:23;0.40;99.90
46676;DHT22;32412;51.478;5.694;2022-12-10T17:28:51;0.40;99.90
46676;DHT22;32412;51.478;5.694;2022-12-10T17:31:17;0.40;99.90
46676;DHT22;32412;51.478;5.694;2022-12-10T17:33:43;0.40;99.90
46676;DHT22;32412;51.478;5.694;2022-12-10T17:36:09;0.30;99.90
46676;DHT22;32412;51.478;5.694;2022-12-10T17:38:34;0.40;99.90
46676;DHT22;32412;51.478;5.694;2022-12-10T17:41:00;0.40;99.90
46676;DHT22;32412;51.478;5.694;2022-12-10T17:43:26;0.40;99.90
46676;DHT22;32412;51.478;5.694;2022-12-10T17:45:59;0.40;99.90
46676;DHT22;32412;51.478;5.694;2022-12-10T17:48:24;0.40;99.90
46676;DHT22;32412;51.478;5.694;2022-12-10T17:50:50;0.50;99.90
46676;DHT22;32412;51.478;5.694;2022-12-10T17:53:16;0.50;99.90